sensor_id;sensor_type;location;lat;lon;timestamp;P1;durP1;ratioP1;P2;durP2;ratioP2
2724;SDS011;1370;52.596;13.112;2024-03-07T00:00:11;72.20;;;32.40;;
2724;SDS011;1370;52.596;13.112;2024-03-07T00:02:42;74.50;;;34.60;;
2724;SDS011;1370;52.596;13.112;2024-03-07T00:05:09;66.77;;;31.13;;
2724;SDS011;1370;52.596;13.112;2024-03-07T00:07:34;68.23;;;34.37;;
2724;SDS011;1370;52.596;13.112;2024-03-07T00:09:59;65.73;;;36.03;;
2724;SDS011;1370;52.596;13.112;2024-03-07T00:12:25;65.17;;;34.80;;
2724;SDS011;1370;52.596;13.112;2024-03-07T00:14:52;82.17;;;35.20;;
2724;SDS011;1370;52.596;13.112;2024-03-07T00:17:17;70.97;;;32.97;;
2724;SDS011;1370;52.596;13.112;2024-03-07T00:19:44;69.23;;;34.80;;
2724;SDS011;1370;52.596;13.112;2024-03-07T00:22:09;74.80;;;33.40;;
2724;SDS011;1370;52.596;13.112;2024-03-07T00:24:34;84.47;;;35.90;;
2724;SDS011;1370;52.596;13.112;2024-03-07T00:27:01;85.20;;;34.10;;
2724;SDS011;1370;52.596;13.112;2024-03-07T00:29:26;95.33;;;35.93;;
2724;SDS011;1370;52.596;13.112;2024-03-07T00:31:53;83.17;;;34.90;;
2724;SDS011;1370;52.596;13.112;2024-03-07T00:34:18;87.13;;;35.90;;
2724;SDS011;1370;52.596;13.112;2024-03-07T00:36:45;76.87;;;35.23;;
2724;SDS011;1370;52.596;13.112;2024-03-07T00:39:11;71.27;;;33.00;;
2724;SDS011;1370;52.596;13.112;2024-03-07T00:41:37;70.90;;;35.33;;
2724;SDS011;1370;52.596;13.112;2024-03-07T00:44:03;71.87;;;36.60;;
2724;SDS011;1370;52.596;13.112;2024-03-07T00:46:28;73.50;;;32.40;;
2724;SDS011;1370;52.596;13.112;2024-03-07T00:48:54;68.10;;;35.50;;
2724;SDS011;1370;52.596;13.112;2024-03-07T00:51:19;93.07;;;37.03;;
2724;SDS011;1370;52.596;13.112;2024-03-07T00:53:45;69.63;;;34.60;;
2724;SDS011;1370;52.596;13.112;2024-03-07T00:56:12;78.23;;;32.73;;
2724;SDS011;1370;52.596;13.112;2024-03-07T00:58:37;72.97;;;35.60;;
2724;SDS011;1370;52.596;13.112;2024-03-07T01:01:02;75.20;;;34.10;;
2724;SDS011;1370;52.596;13.112;2024-03-07T01:03:28;85.53;;;34.53;;
2724;SDS011;1370;52.596;13.112;2024-03-07T01:05:53;79.23;;;35.03;;
2724;SDS011;1370;52.596;13.112;2024-03-07T01:08:19;81.50;;;37.10;;
2724;SDS011;1370;52.596;13.112;2024-03-07T01:10:44;71.73;;;34.70;;
2724;SDS011;1370;52.596;13.112;2024-03-07T01:13:09;88.90;;;38.30;;
2724;SDS011;1370;52.596;13.112;2024-03-07T01:15:43;80.97;;;36.60;;
2724;SDS011;1370;52.596;13.112;2024-03-07T01:18:09;74.50;;;34.10;;
2724;SDS011;1370;52.596;13.112;2024-03-07T01:20:34;78.27;;;35.13;;
2724;SDS011;1370;52.596;13.112;2024-03-07T01:23:00;90.47;;;36.27;;
2724;SDS011;1370;52.596;13.112;2024-03-07T01:25:25;94.40;;;41.53;;
2724;SDS011;1370;52.596;13.112;2024-03-07T01:27:52;87.97;;;40.17;;
2724;SDS011;1370;52.596;13.112;2024-03-07T01:30:17;74.97;;;35.93;;
2724;SDS011;1370;52.596;13.112;2024-03-07T01:32:42;86.93;;;38.43;;
2724;SDS011;1370;52.596;13.112;2024-03-07T01:35:08;80.87;;;37.73;;
2724;SDS011;1370;52.596;13.112;2024-03-07T01:37:34;77.00;;;34.63;;
2724;SDS011;1370;52.596;13.112;2024-03-07T01:40:00;96.67;;;37.83;;
2724;SDS011;1370;52.596;13.112;2024-03-07T01:42:30;85.67;;;38.27;;
2724;SDS011;1370;52.596;13.112;2024-03-07T01:44:55;88.87;;;35.70;;
2724;SDS011;1370;52.596;13.112;2024-03-07T01:47:20;79.10;;;36.27;;
2724;SDS011;1370;52.596;13.112;2024-03-07T01:49:46;81.10;;;36.77;;
2724;SDS011;1370;52.596;13.112;2024-03-07T01:52:11;80.03;;;37.17;;
2724;SDS011;1370;52.596;13.112;2024-03-07T01:54:37;88.27;;;38.47;;
2724;SDS011;1370;52.596;13.112;2024-03-07T01:57:04;84.40;;;36.77;;
2724;SDS011;1370;52.596;13.112;2024-03-07T01:59:29;107.90;;;41.07;;
2724;SDS011;1370;52.596;13.112;2024-03-07T02:01:55;89.27;;;41.13;;
2724;SDS011;1370;52.596;13.112;2024-03-07T02:04:21;88.97;;;41.37;;
2724;SDS011;1370;52.596;13.112;2024-03-07T02:06:46;99.70;;;41.77;;
2724;SDS011;1370;52.596;13.112;2024-03-07T02:09:12;93.97;;;39.93;;
2724;SDS011;1370;52.596;13.112;2024-03-07T02:11:39;102.87;;;41.70;;
2724;SDS011;1370;52.596;13.112;2024-03-07T02:14:04;107.63;;;42.67;;
2724;SDS011;1370;52.596;13.112;2024-03-07T02:16:30;78.63;;;36.73;;
2724;SDS011;1370;52.596;13.112;2024-03-07T02:18:55;112.87;;;39.63;;
2724;SDS011;1370;52.596;13.112;2024-03-07T02:21:21;91.70;;;41.90;;
2724;SDS011;1370;52.596;13.112;2024-03-07T02:23:47;93.07;;;42.33;;
2724;SDS011;1370;52.596;13.112;2024-03-07T02:26:13;104.20;;;43.70;;
2724;SDS011;1370;52.596;13.112;2024-03-07T02:28:38;87.47;;;40.00;;
2724;SDS011;1370;52.596;13.112;2024-03-07T02:31:04;88.63;;;39.33;;
2724;SDS011;1370;52.596;13.112;2024-03-07T02:33:29;89.53;;;38.60;;
2724;SDS011;1370;52.596;13.112;2024-03-07T02:35:57;94.53;;;42.20;;
2724;SDS011;1370;52.596;13.112;2024-03-07T02:38:22;107.10;;;40.17;;
2724;SDS011;1370;52.596;13.112;2024-03-07T02:40:47;101.43;;;38.83;;
2724;SDS011;1370;52.596;13.112;2024-03-07T02:43:13;95.70;;;39.13;;
2724;SDS011;1370;52.596;13.112;2024-03-07T02:45:38;95.23;;;40.90;;
2724;SDS011;1370;52.596;13.112;2024-03-07T02:48:03;96.00;;;41.80;;
2724;SDS011;1370;52.596;13.112;2024-03-07T02:50:32;93.87;;;38.97;;
2724;SDS011;1370;52.596;13.112;2024-03-07T02:52:57;83.33;;;39.87;;
2724;SDS011;1370;52.596;13.112;2024-03-07T02:55:23;90.87;;;38.43;;
2724;SDS011;1370;52.596;13.112;2024-03-07T02:57:49;117.03;;;43.53;;
2724;SDS011;1370;52.596;13.112;2024-03-07T03:00:14;84.50;;;40.13;;
2724;SDS011;1370;52.596;13.112;2024-03-07T03:02:48;101.00;;;40.83;;
2724;SDS011;1370;52.596;13.112;2024-03-07T03:05:14;97.40;;;41.40;;
2724;SDS011;1370;52.596;13.112;2024-03-07T03:07:40;114.93;;;46.87;;
2724;SDS011;1370;52.596;13.112;2024-03-07T03:10:06;90.10;;;42.63;;
2724;SDS011;1370;52.596;13.112;2024-03-07T03:12:35;91.77;;;43.70;;
2724;SDS011;1370;52.596;13.112;2024-03-07T03:15:02;98.77;;;42.37;;
2724;SDS011;1370;52.596;13.112;2024-03-07T03:17:30;89.00;;;42.20;;
2724;SDS011;1370;52.596;13.112;2024-03-07T03:19:55;99.23;;;42.73;;
2724;SDS011;1370;52.596;13.112;2024-03-07T03:22:21;99.33;;;42.83;;
2724;SDS011;1370;52.596;13.112;2024-03-07T03:24:46;84.23;;;42.73;;
2724;SDS011;1370;52.596;13.112;2024-03-07T03:27:12;96.40;;;45.90;;
2724;SDS011;1370;52.596;13.112;2024-03-07T03:29:37;102.87;;;44.63;;
2724;SDS011;1370;52.596;13.112;2024-03-07T03:32:03;107.17;;;44.00;;
2724;SDS011;1370;52.596;13.112;2024-03-07T03:34:28;88.27;;;44.60;;
2724;SDS011;1370;52.596;13.112;2024-03-07T03:36:54;93.60;;;43.80;;
2724;SDS011;1370;52.596;13.112;2024-03-07T03:39:19;89.53;;;45.03;;
2724;SDS011;1370;52.596;13.112;2024-03-07T03:41:45;99.30;;;47.07;;
2724;SDS011;1370;52.596;13.112;2024-03-07T03:44:11;116.43;;;44.13;;
2724;SDS011;1370;52.596;13.112;2024-03-07T03:46:36;113.93;;;47.00;;
2724;SDS011;1370;52.596;13.112;2024-03-07T03:49:01;91.80;;;43.40;;
2724;SDS011;1370;52.596;13.112;2024-03-07T03:51:27;82.37;;;40.67;;
2724;SDS011;1370;52.596;13.112;2024-03-07T03:53:53;98.03;;;43.80;;
2724;SDS011;1370;52.596;13.112;2024-03-07T03:56:18;95.77;;;43.30;;
2724;SDS011;1370;52.596;13.112;2024-03-07T03:58:43;100.90;;;43.87;;
2724;SDS011;1370;52.596;13.112;2024-03-07T04:01:09;93.23;;;43.43;;
2724;SDS011;1370;52.596;13.112;2024-03-07T04:03:38;84.70;;;41.50;;
2724;SDS011;1370;52.596;13.112;2024-03-07T04:06:03;86.20;;;40.80;;
2724;SDS011;1370;52.596;13.112;2024-03-07T04:08:29;80.97;;;39.30;;
2724;SDS011;1370;52.596;13.112;2024-03-07T04:10:55;115.57;;;42.80;;
2724;SDS011;1370;52.596;13.112;2024-03-07T04:13:20;83.00;;;42.03;;
2724;SDS011;1370;52.596;13.112;2024-03-07T04:15:47;102.23;;;44.40;;
2724;SDS011;1370;52.596;13.112;2024-03-07T04:18:12;92.20;;;42.80;;
2724;SDS011;1370;52.596;13.112;2024-03-07T04:20:37;88.67;;;38.40;;
2724;SDS011;1370;52.596;13.112;2024-03-07T04:23:04;95.17;;;43.40;;
2724;SDS011;1370;52.596;13.112;2024-03-07T04:25:30;78.63;;;40.53;;
2724;SDS011;1370;52.596;13.112;2024-03-07T04:27:56;86.83;;;41.60;;
2724;SDS011;1370;52.596;13.112;2024-03-07T04:30:21;87.07;;;40.90;;
2724;SDS011;1370;52.596;13.112;2024-03-07T04:32:46;92.83;;;41.00;;
2724;SDS011;1370;52.596;13.112;2024-03-07T04:35:13;85.37;;;41.00;;
2724;SDS011;1370;52.596;13.112;2024-03-07T04:37:38;84.80;;;38.03;;
2724;SDS011;1370;52.596;13.112;2024-03-07T04:40:05;84.20;;;40.00;;
2724;SDS011;1370;52.596;13.112;2024-03-07T04:42:41;85.90;;;37.17;;
2724;SDS011;1370;52.596;13.112;2024-03-07T04:45:11;72.13;;;35.13;;
2724;SDS011;1370;52.596;13.112;2024-03-07T04:47:38;78.83;;;38.67;;
2724;SDS011;1370;52.596;13.112;2024-03-07T04:50:06;85.90;;;39.70;;
2724;SDS011;1370;52.596;13.112;2024-03-07T04:52:31;85.00;;;36.87;;
2724;SDS011;1370;52.596;13.112;2024-03-07T04:54:57;84.87;;;40.27;;
2724;SDS011;1370;52.596;13.112;2024-03-07T04:57:23;72.67;;;35.80;;
2724;SDS011;1370;52.596;13.112;2024-03-07T04:59:48;80.07;;;36.77;;
2724;SDS011;1370;52.596;13.112;2024-03-07T05:02:13;73.63;;;37.63;;
2724;SDS011;1370;52.596;13.112;2024-03-07T05:04:39;82.47;;;36.73;;
2724;SDS011;1370;52.596;13.112;2024-03-07T05:07:04;84.27;;;38.70;;
2724;SDS011;1370;52.596;13.112;2024-03-07T05:09:30;81.07;;;36.10;;
2724;SDS011;1370;52.596;13.112;2024-03-07T05:11:56;76.80;;;35.60;;
2724;SDS011;1370;52.596;13.112;2024-03-07T05:14:21;74.43;;;36.70;;
2724;SDS011;1370;52.596;13.112;2024-03-07T05:16:52;83.40;;;38.43;;
2724;SDS011;1370;52.596;13.112;2024-03-07T05:19:30;84.57;;;39.43;;
2724;SDS011;1370;52.596;13.112;2024-03-07T05:21:58;81.93;;;36.03;;
2724;SDS011;1370;52.596;13.112;2024-03-07T05:24:23;72.33;;;41.60;;
2724;SDS011;1370;52.596;13.112;2024-03-07T05:26:49;86.20;;;44.63;;
2724;SDS011;1370;52.596;13.112;2024-03-07T05:29:14;82.30;;;46.10;;
2724;SDS011;1370;52.596;13.112;2024-03-07T05:31:40;82.30;;;41.87;;
2724;SDS011;1370;52.596;13.112;2024-03-07T05:34:17;84.13;;;40.07;;
2724;SDS011;1370;52.596;13.112;2024-03-07T05:36:48;96.73;;;42.77;;
2724;SDS011;1370;52.596;13.112;2024-03-07T05:39:13;79.07;;;39.03;;
2724;SDS011;1370;52.596;13.112;2024-03-07T05:41:40;69.30;;;38.07;;
2724;SDS011;1370;52.596;13.112;2024-03-07T05:44:06;76.50;;;36.57;;
2724;SDS011;1370;52.596;13.112;2024-03-07T05:46:35;89.67;;;37.33;;
2724;SDS011;1370;52.596;13.112;2024-03-07T05:49:10;82.07;;;37.40;;
2724;SDS011;1370;52.596;13.112;2024-03-07T05:51:36;64.17;;;37.23;;
2724;SDS011;1370;52.596;13.112;2024-03-07T05:54:01;67.13;;;33.27;;
2724;SDS011;1370;52.596;13.112;2024-03-07T05:56:31;65.53;;;35.50;;
2724;SDS011;1370;52.596;13.112;2024-03-07T05:58:57;83.13;;;36.67;;
2724;SDS011;1370;52.596;13.112;2024-03-07T06:01:22;84.07;;;38.67;;
2724;SDS011;1370;52.596;13.112;2024-03-07T06:03:50;77.10;;;38.40;;
2724;SDS011;1370;52.596;13.112;2024-03-07T06:06:16;87.00;;;40.93;;
2724;SDS011;1370;52.596;13.112;2024-03-07T06:08:41;66.27;;;35.37;;
2724;SDS011;1370;52.596;13.112;2024-03-07T06:11:08;77.70;;;36.17;;
2724;SDS011;1370;52.596;13.112;2024-03-07T06:13:33;80.93;;;38.90;;
2724;SDS011;1370;52.596;13.112;2024-03-07T06:15:59;74.03;;;37.23;;
2724;SDS011;1370;52.596;13.112;2024-03-07T06:18:29;77.20;;;35.90;;
2724;SDS011;1370;52.596;13.112;2024-03-07T06:20:56;69.57;;;34.83;;
2724;SDS011;1370;52.596;13.112;2024-03-07T06:23:21;71.97;;;35.60;;
2724;SDS011;1370;52.596;13.112;2024-03-07T06:25:47;61.30;;;33.17;;
2724;SDS011;1370;52.596;13.112;2024-03-07T06:28:12;74.67;;;36.87;;
2724;SDS011;1370;52.596;13.112;2024-03-07T06:30:39;78.57;;;37.93;;
2724;SDS011;1370;52.596;13.112;2024-03-07T06:33:05;61.77;;;35.53;;
2724;SDS011;1370;52.596;13.112;2024-03-07T06:35:30;62.57;;;36.27;;
2724;SDS011;1370;52.596;13.112;2024-03-07T06:37:56;69.13;;;35.50;;
2724;SDS011;1370;52.596;13.112;2024-03-07T06:40:21;75.17;;;34.17;;
2724;SDS011;1370;52.596;13.112;2024-03-07T06:42:47;67.83;;;34.60;;
2724;SDS011;1370;52.596;13.112;2024-03-07T06:45:13;65.33;;;36.50;;
2724;SDS011;1370;52.596;13.112;2024-03-07T06:47:38;72.50;;;34.93;;
2724;SDS011;1370;52.596;13.112;2024-03-07T06:50:03;63.83;;;36.03;;
2724;SDS011;1370;52.596;13.112;2024-03-07T06:52:29;69.90;;;34.83;;
2724;SDS011;1370;52.596;13.112;2024-03-07T06:54:54;67.10;;;34.93;;
2724;SDS011;1370;52.596;13.112;2024-03-07T06:57:20;69.43;;;36.67;;
2724;SDS011;1370;52.596;13.112;2024-03-07T06:59:46;62.43;;;34.90;;
2724;SDS011;1370;52.596;13.112;2024-03-07T07:02:11;77.67;;;37.57;;
2724;SDS011;1370;52.596;13.112;2024-03-07T07:04:37;73.17;;;34.37;;
2724;SDS011;1370;52.596;13.112;2024-03-07T07:07:12;75.73;;;38.33;;
2724;SDS011;1370;52.596;13.112;2024-03-07T07:09:38;74.30;;;39.93;;
2724;SDS011;1370;52.596;13.112;2024-03-07T07:12:04;69.20;;;34.10;;
2724;SDS011;1370;52.596;13.112;2024-03-07T07:14:30;81.40;;;34.67;;
2724;SDS011;1370;52.596;13.112;2024-03-07T07:16:55;69.07;;;35.30;;
2724;SDS011;1370;52.596;13.112;2024-03-07T07:19:26;60.17;;;34.77;;
2724;SDS011;1370;52.596;13.112;2024-03-07T07:21:52;62.63;;;31.47;;
2724;SDS011;1370;52.596;13.112;2024-03-07T07:24:25;81.40;;;36.00;;
2724;SDS011;1370;52.596;13.112;2024-03-07T07:26:50;68.33;;;34.27;;
2724;SDS011;1370;52.596;13.112;2024-03-07T07:29:16;63.60;;;32.57;;
2724;SDS011;1370;52.596;13.112;2024-03-07T07:31:41;49.27;;;30.60;;
2724;SDS011;1370;52.596;13.112;2024-03-07T07:34:06;67.20;;;32.10;;
2724;SDS011;1370;52.596;13.112;2024-03-07T07:36:32;67.53;;;38.00;;
2724;SDS011;1370;52.596;13.112;2024-03-07T07:38:57;85.57;;;48.87;;
2724;SDS011;1370;52.596;13.112;2024-03-07T07:41:23;65.47;;;37.57;;
2724;SDS011;1370;52.596;13.112;2024-03-07T07:43:48;56.67;;;32.70;;
2724;SDS011;1370;52.596;13.112;2024-03-07T07:46:13;51.20;;;28.57;;
2724;SDS011;1370;52.596;13.112;2024-03-07T07:48:41;47.03;;;29.07;;
2724;SDS011;1370;52.596;13.112;2024-03-07T07:51:06;51.00;;;27.40;;
2724;SDS011;1370;52.596;13.112;2024-03-07T07:53:31;40.07;;;24.60;;
2724;SDS011;1370;52.596;13.112;2024-03-07T07:55:57;47.47;;;27.00;;
2724;SDS011;1370;52.596;13.112;2024-03-07T07:58:23;48.07;;;26.70;;
2724;SDS011;1370;52.596;13.112;2024-03-07T08:00:48;50.20;;;27.10;;
2724;SDS011;1370;52.596;13.112;2024-03-07T08:03:13;49.60;;;26.20;;
2724;SDS011;1370;52.596;13.112;2024-03-07T08:05:40;37.33;;;22.60;;
2724;SDS011;1370;52.596;13.112;2024-03-07T08:08:09;38.80;;;22.70;;
2724;SDS011;1370;52.596;13.112;2024-03-07T08:10:38;32.43;;;21.93;;
2724;SDS011;1370;52.596;13.112;2024-03-07T08:13:06;37.67;;;22.40;;
2724;SDS011;1370;52.596;13.112;2024-03-07T08:15:31;39.63;;;21.50;;
2724;SDS011;1370;52.596;13.112;2024-03-07T08:17:57;28.97;;;20.23;;
2724;SDS011;1370;52.596;13.112;2024-03-07T08:20:23;36.07;;;21.73;;
2724;SDS011;1370;52.596;13.112;2024-03-07T08:22:51;37.53;;;20.40;;
2724;SDS011;1370;52.596;13.112;2024-03-07T08:25:17;28.30;;;19.10;;
2724;SDS011;1370;52.596;13.112;2024-03-07T08:27:45;38.43;;;21.97;;
2724;SDS011;1370;52.596;13.112;2024-03-07T08:30:12;33.40;;;20.77;;
2724;SDS011;1370;52.596;13.112;2024-03-07T08:32:39;33.43;;;21.03;;
2724;SDS011;1370;52.596;13.112;2024-03-07T08:35:08;34.83;;;19.80;;
2724;SDS011;1370;52.596;13.112;2024-03-07T08:37:38;30.03;;;19.43;;
2724;SDS011;1370;52.596;13.112;2024-03-07T08:40:04;34.60;;;19.90;;
2724;SDS011;1370;52.596;13.112;2024-03-07T08:42:32;28.93;;;18.47;;
2724;SDS011;1370;52.596;13.112;2024-03-07T08:44:59;25.13;;;18.33;;
2724;SDS011;1370;52.596;13.112;2024-03-07T08:47:25;24.80;;;17.17;;
2724;SDS011;1370;52.596;13.112;2024-03-07T08:49:50;26.30;;;15.77;;
2724;SDS011;1370;52.596;13.112;2024-03-07T08:52:16;28.60;;;16.30;;
2724;SDS011;1370;52.596;13.112;2024-03-07T08:54:41;22.30;;;15.07;;
2724;SDS011;1370;52.596;13.112;2024-03-07T08:57:06;29.23;;;16.13;;
2724;SDS011;1370;52.596;13.112;2024-03-07T08:59:32;21.63;;;14.13;;
2724;SDS011;1370;52.596;13.112;2024-03-07T09:01:58;30.60;;;14.37;;
2724;SDS011;1370;52.596;13.112;2024-03-07T09:04:26;20.30;;;15.17;;
2724;SDS011;1370;52.596;13.112;2024-03-07T09:06:51;17.20;;;13.50;;
2724;SDS011;1370;52.596;13.112;2024-03-07T09:09:17;24.93;;;14.70;;
2724;SDS011;1370;52.596;13.112;2024-03-07T09:11:42;23.80;;;13.87;;
2724;SDS011;1370;52.596;13.112;2024-03-07T09:14:08;15.50;;;13.30;;
2724;SDS011;1370;52.596;13.112;2024-03-07T09:16:34;17.27;;;14.07;;
2724;SDS011;1370;52.596;13.112;2024-03-07T09:19:00;22.10;;;14.03;;
2724;SDS011;1370;52.596;13.112;2024-03-07T09:21:25;15.83;;;12.50;;
2724;SDS011;1370;52.596;13.112;2024-03-07T09:23:50;16.90;;;11.13;;
2724;SDS011;1370;52.596;13.112;2024-03-07T09:26:16;22.43;;;14.17;;
2724;SDS011;1370;52.596;13.112;2024-03-07T09:28:41;21.77;;;13.90;;
2724;SDS011;1370;52.596;13.112;2024-03-07T09:31:06;24.97;;;16.43;;
2724;SDS011;1370;52.596;13.112;2024-03-07T09:36:27;18.30;;;13.47;;
2724;SDS011;1370;52.596;13.112;2024-03-07T09:38:53;24.70;;;16.03;;
2724;SDS011;1370;52.596;13.112;2024-03-07T09:41:18;18.00;;;11.87;;
2724;SDS011;1370;52.596;13.112;2024-03-07T09:43:45;21.40;;;12.90;;
2724;SDS011;1370;52.596;13.112;2024-03-07T09:46:14;19.07;;;12.17;;
2724;SDS011;1370;52.596;13.112;2024-03-07T09:48:39;17.47;;;11.90;;
2724;SDS011;1370;52.596;13.112;2024-03-07T09:51:05;17.20;;;12.23;;
2724;SDS011;1370;52.596;13.112;2024-03-07T09:53:34;20.87;;;12.60;;
2724;SDS011;1370;52.596;13.112;2024-03-07T09:56:01;19.63;;;12.23;;
2724;SDS011;1370;52.596;13.112;2024-03-07T09:58:28;18.90;;;12.03;;
2724;SDS011;1370;52.596;13.112;2024-03-07T10:00:56;16.77;;;12.60;;
2724;SDS011;1370;52.596;13.112;2024-03-07T10:03:22;16.30;;;11.07;;
2724;SDS011;1370;52.596;13.112;2024-03-07T10:05:49;21.70;;;13.17;;
2724;SDS011;1370;52.596;13.112;2024-03-07T10:08:15;14.90;;;11.77;;
2724;SDS011;1370;52.596;13.112;2024-03-07T10:10:41;17.90;;;12.50;;
2724;SDS011;1370;52.596;13.112;2024-03-07T10:13:09;14.30;;;11.00;;
2724;SDS011;1370;52.596;13.112;2024-03-07T10:15:35;14.97;;;11.67;;
2724;SDS011;1370;52.596;13.112;2024-03-07T10:18:00;16.57;;;11.13;;
2724;SDS011;1370;52.596;13.112;2024-03-07T10:20:26;19.43;;;12.63;;
2724;SDS011;1370;52.596;13.112;2024-03-07T10:22:51;21.53;;;13.17;;
2724;SDS011;1370;52.596;13.112;2024-03-07T10:25:17;14.67;;;11.47;;
2724;SDS011;1370;52.596;13.112;2024-03-07T10:27:45;17.53;;;12.80;;
2724;SDS011;1370;52.596;13.112;2024-03-07T10:30:13;21.10;;;13.27;;
2724;SDS011;1370;52.596;13.112;2024-03-07T10:32:45;20.20;;;10.77;;
2724;SDS011;1370;52.596;13.112;2024-03-07T10:35:24;13.80;;;10.80;;
2724;SDS011;1370;52.596;13.112;2024-03-07T10:37:52;18.70;;;12.33;;
2724;SDS011;1370;52.596;13.112;2024-03-07T10:40:20;24.97;;;11.80;;
2724;SDS011;1370;52.596;13.112;2024-03-07T10:42:47;20.37;;;13.63;;
2724;SDS011;1370;52.596;13.112;2024-03-07T10:45:17;16.13;;;12.27;;
2724;SDS011;1370;52.596;13.112;2024-03-07T10:47:55;17.20;;;12.93;;
2724;SDS011;1370;52.596;13.112;2024-03-07T10:50:30;15.63;;;12.07;;
2724;SDS011;1370;52.596;13.112;2024-03-07T10:52:58;24.00;;;13.40;;
2724;SDS011;1370;52.596;13.112;2024-03-07T10:55:34;17.97;;;12.80;;
2724;SDS011;1370;52.596;13.112;2024-03-07T11:00:58;19.60;;;13.30;;
2724;SDS011;1370;52.596;13.112;2024-03-07T11:03:28;22.33;;;13.60;;
2724;SDS011;1370;52.596;13.112;2024-03-07T11:05:54;20.30;;;15.00;;
2724;SDS011;1370;52.596;13.112;2024-03-07T11:08:20;15.67;;;12.03;;
2724;SDS011;1370;52.596;13.112;2024-03-07T11:10:46;16.63;;;12.07;;
2724;SDS011;1370;52.596;13.112;2024-03-07T11:13:15;16.80;;;12.37;;
2724;SDS011;1370;52.596;13.112;2024-03-07T11:15:42;15.80;;;12.27;;
2724;SDS011;1370;52.596;13.112;2024-03-07T11:18:09;15.77;;;10.70;;
2724;SDS011;1370;52.596;13.112;2024-03-07T11:20:35;12.67;;;11.37;;
2724;SDS011;1370;52.596;13.112;2024-03-07T11:23:02;19.40;;;12.20;;
2724;SDS011;1370;52.596;13.112;2024-03-07T11:26:05;14.63;;;10.53;;
2724;SDS011;1370;52.596;13.112;2024-03-07T11:28:34;21.40;;;12.70;;
2724;SDS011;1370;52.596;13.112;2024-03-07T11:31:15;14.90;;;11.40;;
2724;SDS011;1370;52.596;13.112;2024-03-07T11:36:44;18.93;;;12.43;;
2724;SDS011;1370;52.596;13.112;2024-03-07T11:42:04;17.17;;;11.90;;
2724;SDS011;1370;52.596;13.112;2024-03-07T11:44:31;16.87;;;11.40;;
2724;SDS011;1370;52.596;13.112;2024-03-07T11:46:56;17.80;;;12.50;;
2724;SDS011;1370;52.596;13.112;2024-03-07T11:49:23;15.87;;;11.73;;
2724;SDS011;1370;52.596;13.112;2024-03-07T11:51:48;20.60;;;13.00;;
2724;SDS011;1370;52.596;13.112;2024-03-07T11:54:16;17.73;;;13.40;;
2724;SDS011;1370;52.596;13.112;2024-03-07T11:56:46;14.70;;;10.80;;
2724;SDS011;1370;52.596;13.112;2024-03-07T11:59:14;16.50;;;10.60;;
2724;SDS011;1370;52.596;13.112;2024-03-07T12:01:39;19.57;;;11.40;;
2724;SDS011;1370;52.596;13.112;2024-03-07T12:04:05;14.23;;;11.27;;
2724;SDS011;1370;52.596;13.112;2024-03-07T12:06:31;17.83;;;12.17;;
2724;SDS011;1370;52.596;13.112;2024-03-07T12:09:00;18.63;;;12.43;;
2724;SDS011;1370;52.596;13.112;2024-03-07T12:11:26;17.80;;;14.00;;
2724;SDS011;1370;52.596;13.112;2024-03-07T12:13:52;15.00;;;12.37;;
2724;SDS011;1370;52.596;13.112;2024-03-07T12:16:18;15.20;;;12.07;;
2724;SDS011;1370;52.596;13.112;2024-03-07T12:18:43;21.70;;;13.13;;
2724;SDS011;1370;52.596;13.112;2024-03-07T12:21:09;14.73;;;11.30;;
2724;SDS011;1370;52.596;13.112;2024-03-07T12:23:34;17.20;;;10.93;;
2724;SDS011;1370;52.596;13.112;2024-03-07T12:26:01;16.50;;;10.93;;
2724;SDS011;1370;52.596;13.112;2024-03-07T12:28:27;15.10;;;11.20;;
2724;SDS011;1370;52.596;13.112;2024-03-07T12:30:53;16.20;;;10.97;;
2724;SDS011;1370;52.596;13.112;2024-03-07T12:33:19;14.30;;;11.13;;
2724;SDS011;1370;52.596;13.112;2024-03-07T12:35:49;14.93;;;11.87;;
2724;SDS011;1370;52.596;13.112;2024-03-07T12:38:16;22.73;;;11.27;;
2724;SDS011;1370;52.596;13.112;2024-03-07T12:40:42;20.23;;;12.03;;
2724;SDS011;1370;52.596;13.112;2024-03-07T12:43:18;15.77;;;11.60;;
2724;SDS011;1370;52.596;13.112;2024-03-07T12:45:47;19.83;;;11.80;;
2724;SDS011;1370;52.596;13.112;2024-03-07T12:48:14;15.83;;;12.13;;
2724;SDS011;1370;52.596;13.112;2024-03-07T12:50:39;16.13;;;12.27;;
2724;SDS011;1370;52.596;13.112;2024-03-07T12:53:05;22.13;;;13.87;;
2724;SDS011;1370;52.596;13.112;2024-03-07T12:55:31;20.90;;;13.87;;
2724;SDS011;1370;52.596;13.112;2024-03-07T12:57:56;21.83;;;14.37;;
2724;SDS011;1370;52.596;13.112;2024-03-07T13:00:22;19.00;;;12.70;;
2724;SDS011;1370;52.596;13.112;2024-03-07T13:02:47;17.30;;;13.20;;
2724;SDS011;1370;52.596;13.112;2024-03-07T13:05:13;20.27;;;14.93;;
2724;SDS011;1370;52.596;13.112;2024-03-07T13:07:52;19.40;;;13.00;;
2724;SDS011;1370;52.596;13.112;2024-03-07T13:10:18;18.07;;;13.07;;
2724;SDS011;1370;52.596;13.112;2024-03-07T13:12:45;20.10;;;13.50;;
2724;SDS011;1370;52.596;13.112;2024-03-07T13:15:13;18.60;;;14.07;;
2724;SDS011;1370;52.596;13.112;2024-03-07T13:17:39;25.33;;;15.20;;
2724;SDS011;1370;52.596;13.112;2024-03-07T13:20:04;17.10;;;13.83;;
2724;SDS011;1370;52.596;13.112;2024-03-07T13:22:36;25.23;;;13.23;;
2724;SDS011;1370;52.596;13.112;2024-03-07T13:25:08;18.57;;;12.97;;
2724;SDS011;1370;52.596;13.112;2024-03-07T13:30:24;16.73;;;12.83;;
2724;SDS011;1370;52.596;13.112;2024-03-07T13:32:52;18.63;;;12.63;;
2724;SDS011;1370;52.596;13.112;2024-03-07T13:35:19;28.10;;;13.23;;
2724;SDS011;1370;52.596;13.112;2024-03-07T13:37:45;19.00;;;12.70;;
2724;SDS011;1370;52.596;13.112;2024-03-07T13:40:14;32.87;;;20.20;;
2724;SDS011;1370;52.596;13.112;2024-03-07T13:42:55;51.80;;;38.00;;
2724;SDS011;1370;52.596;13.112;2024-03-07T13:47:53;13.43;;;11.27;;
2724;SDS011;1370;52.596;13.112;2024-03-07T13:50:20;17.50;;;12.07;;
2724;SDS011;1370;52.596;13.112;2024-03-07T13:52:52;20.50;;;14.80;;
2724;SDS011;1370;52.596;13.112;2024-03-07T13:55:45;16.53;;;13.20;;
2724;SDS011;1370;52.596;13.112;2024-03-07T14:12:16;19.63;;;13.30;;
2724;SDS011;1370;52.596;13.112;2024-03-07T14:23:38;19.93;;;13.93;;
2724;SDS011;1370;52.596;13.112;2024-03-07T14:29:15;16.90;;;12.73;;
2724;SDS011;1370;52.596;13.112;2024-03-07T14:31:46;18.57;;;15.00;;
2724;SDS011;1370;52.596;13.112;2024-03-07T14:36:49;82.43;;;53.87;;
2724;SDS011;1370;52.596;13.112;2024-03-07T14:39:18;28.00;;;19.43;;
2724;SDS011;1370;52.596;13.112;2024-03-07T14:41:52;32.47;;;21.50;;
2724;SDS011;1370;52.596;13.112;2024-03-07T14:44:20;24.00;;;14.90;;
2724;SDS011;1370;52.596;13.112;2024-03-07T14:46:46;25.00;;;15.30;;
2724;SDS011;1370;52.596;13.112;2024-03-07T14:49:15;18.80;;;15.90;;
2724;SDS011;1370;52.596;13.112;2024-03-07T14:51:42;15.87;;;12.00;;
2724;SDS011;1370;52.596;13.112;2024-03-07T14:57:30;21.43;;;12.70;;
2724;SDS011;1370;52.596;13.112;2024-03-07T15:00:04;20.13;;;14.07;;
2724;SDS011;1370;52.596;13.112;2024-03-07T15:02:39;20.40;;;13.97;;
2724;SDS011;1370;52.596;13.112;2024-03-07T15:05:10;16.73;;;12.60;;
2724;SDS011;1370;52.596;13.112;2024-03-07T15:08:07;19.17;;;13.00;;
2724;SDS011;1370;52.596;13.112;2024-03-07T15:10:40;20.90;;;12.80;;
2724;SDS011;1370;52.596;13.112;2024-03-07T15:13:13;23.20;;;14.37;;
2724;SDS011;1370;52.596;13.112;2024-03-07T15:15:39;17.97;;;13.87;;
2724;SDS011;1370;52.596;13.112;2024-03-07T15:18:05;21.10;;;13.17;;
2724;SDS011;1370;52.596;13.112;2024-03-07T15:20:31;17.20;;;12.40;;